Time;durP1;ratioP1;P1;durP2;ratioP2;P2;SDS_P1;SDS_P2;PMS_P1;PMS_P2;Temp;Humidity;BMP_temperature;BMP_pressure;BME280_temperature;BME280_humidity;BME280_pressure;Samples;Min_cycle;Max_cycle;Signal;HPM_P1;HPM_P2
2024/03/21 00:02:14;;;;;;;7.32;4.07;;;11.20;99.90;;;;;;5017448;28;20049;-72
2024/03/21 00:04:39;;;;;;;9.18;3.60;;;11.20;99.90;;;;;;4995127;28;20026;-73
2024/03/21 00:07:05;;;;;;;8.07;4.07;;;11.20;99.90;;;;;;4994784;28;20080;-70
2024/03/21 00:09:31;;;;;;;9.60;3.72;;;11.20;99.90;;;;;;5014259;28;20044;-72
2024/03/21 00:11:57;;;;;;;7.63;4.00;;;11.30;99.90;;;;;;5009197;28;20065;-71
2024/03/21 00:14:23;;;;;;;9.63;3.97;;;11.20;99.90;;;;;;5020187;28;20037;-72
2024/03/21 00:16:48;;;;;;;11.07;3.85;;;11.20;99.90;;;;;;4998350;28;20503;-73
2024/03/21 00:19:15;;;;;;;10.32;4.13;;;11.30;99.90;;;;;;5001424;28;20054;-73
2024/03/21 00:21:41;;;;;;;11.55;4.85;;;11.30;99.90;;;;;;4996540;28;20474;-72
2024/03/21 00:24:06;;;;;;;13.93;5.15;;;11.30;99.90;;;;;;5013824;28;20037;-72
2024/03/21 00:26:32;;;;;;;8.82;4.40;;;11.30;99.90;;;;;;5017111;28;20118;-75
2024/03/21 00:28:57;;;;;;;9.93;4.80;;;11.20;99.90;;;;;;5014993;28;20038;-72
2024/03/21 00:31:23;;;;;;;10.55;4.82;;;11.20;99.90;;;;;;5016688;28;20513;-73
2024/03/21 00:33:49;;;;;;;9.85;4.25;;;11.20;99.90;;;;;;5019421;28;20569;-73
2024/03/21 00:36:16;;;;;;;9.65;4.50;;;11.20;99.90;;;;;;4996753;28;20069;-72
2024/03/21 00:38:42;;;;;;;13.73;5.53;;;11.20;99.90;;;;;;5016966;28;20510;-73
2024/03/21 00:41:08;;;;;;;10.25;5.28;;;11.20;99.90;;;;;;4997445;28;20029;-72
2024/03/21 00:43:34;;;;;;;17.40;5.63;;;11.10;99.90;;;;;;5013784;28;20041;-71
2024/03/21 00:46:00;;;;;;;12.05;5.30;;;11.10;99.90;;;;;;4998386;28;20037;-71
2024/03/21 00:48:26;;;;;;;8.98;5.05;;;11.10;99.90;;;;;;5001102;28;20121;-73
2024/03/21 00:50:51;;;;;;;11.35;5.20;;;11.10;99.90;;;;;;5005954;28;20041;-72
2024/03/21 00:53:17;;;;;;;14.75;5.60;;;11.10;99.90;;;;;;5019249;28;20049;-72
2024/03/21 00:55:42;;;;;;;12.48;5.50;;;11.00;99.90;;;;;;5000550;28;20036;-72
2024/03/21 00:58:08;;;;;;;17.58;5.10;;;11.10;99.90;;;;;;5014695;28;20038;-72
2024/03/21 01:00:35;;;;;;;9.13;4.90;;;11.00;99.90;;;;;;5019674;28;20045;-72
2024/03/21 01:03:02;;;;;;;11.85;5.63;;;11.10;99.90;;;;;;5020514;28;20046;-72
2024/03/21 01:05:28;;;;;;;13.25;6.10;;;11.10;99.90;;;;;;5016818;28;20387;-72
2024/03/21 01:07:53;;;;;;;16.98;6.57;;;11.10;99.90;;;;;;5020915;28;20092;-79
2024/03/21 01:10:19;;;;;;;17.65;6.45;;;11.10;99.90;;;;;;5019846;28;20033;-73
2024/03/21 01:12:45;;;;;;;12.68;5.97;;;11.10;99.90;;;;;;4996807;28;20034;-72
2024/03/21 01:15:11;;;;;;;13.02;6.13;;;11.10;99.90;;;;;;4999186;28;20463;-72
2024/03/21 01:17:37;;;;;;;16.40;6.90;;;11.00;99.90;;;;;;5017538;28;20091;-72
2024/03/21 01:20:03;;;;;;;17.05;6.00;;;11.00;99.90;;;;;;4997937;28;20071;-73
2024/03/21 01:22:29;;;;;;;14.15;7.13;;;11.00;99.90;;;;;;4998333;28;20030;-75
2024/03/21 01:24:54;;;;;;;15.70;7.28;;;11.00;99.90;;;;;;4999237;28;20034;-74
2024/03/21 01:27:20;;;;;;;15.07;6.50;;;11.00;99.90;;;;;;5020399;28;20033;-73
2024/03/21 01:29:46;;;;;;;13.75;6.63;;;11.10;99.90;;;;;;5021053;28;20410;-72
2024/03/21 01:32:12;;;;;;;17.10;6.60;;;11.10;99.90;;;;;;4998686;28;20052;-74
2024/03/21 01:34:37;;;;;;;18.55;8.02;;;11.10;99.90;;;;;;5001994;28;20026;-73
2024/03/21 01:37:03;;;;;;;20.23;8.35;;;11.10;99.90;;;;;;4987677;28;20057;-72
2024/03/21 01:39:28;;;;;;;16.80;7.93;;;11.20;99.90;;;;;;4989894;28;20033;-74
2024/03/21 01:41:54;;;;;;;18.75;9.25;;;11.10;99.90;;;;;;4991250;28;20041;-72
2024/03/21 01:44:20;;;;;;;19.05;8.55;;;11.10;99.90;;;;;;4992316;28;20034;-73
2024/03/21 01:46:46;;;;;;;20.65;8.77;;;11.10;99.90;;;;;;4993066;28;20470;-73
2024/03/21 01:49:13;;;;;;;18.98;7.88;;;11.10;99.90;;;;;;5005788;28;20041;-73
2024/03/21 01:51:40;;;;;;;23.42;8.98;;;11.00;99.90;;;;;;4999965;28;20053;-72
2024/03/21 01:54:07;;;;;;;20.77;8.85;;;11.00;99.90;;;;;;5007484;28;20103;-72
2024/03/21 01:56:37;;;;;;;20.13;8.82;;;10.90;99.90;;;;;;5008312;28;20034;-73
2024/03/21 01:59:06;;;;;;;21.10;8.33;;;10.90;99.90;;;;;;4994105;28;20053;-72
2024/03/21 02:01:33;;;;;;;22.20;9.15;;;10.90;99.90;;;;;;5011983;28;20045;-73
2024/03/21 02:04:00;;;;;;;23.50;8.55;;;10.90;99.90;;;;;;5010374;28;20053;-72
2024/03/21 02:06:32;;;;;;;23.08;8.60;;;10.90;99.90;;;;;;4988285;28;20038;-74
2024/03/21 02:08:58;;;;;;;23.50;9.07;;;10.80;99.90;;;;;;4991542;28;20411;-73
2024/03/21 02:11:24;;;;;;;17.80;9.02;;;10.90;99.90;;;;;;5001267;28;20022;-74
2024/03/21 02:13:52;;;;;;;18.00;8.55;;;10.90;99.90;;;;;;5010809;28;20694;-72
2024/03/21 02:16:18;;;;;;;25.10;9.65;;;10.80;99.90;;;;;;4996149;28;20038;-72
2024/03/21 02:18:44;;;;;;;19.75;8.15;;;10.80;99.90;;;;;;5011930;28;20033;-73
2024/03/21 02:23:55;;;;;;;26.48;9.52;;;10.60;99.90;;;;;;5010214;28;20087;-73
2024/03/21 02:26:20;;;;;;;19.05;9.00;;;10.60;99.90;;;;;;5005568;28;20038;-72
2024/03/21 02:28:50;;;;;;;18.85;8.63;;;10.60;99.90;;;;;;5007880;28;20041;-73
2024/03/21 02:31:20;;;;;;;22.73;10.38;;;10.50;99.90;;;;;;4994508;28;20454;-72
2024/03/21 02:33:47;;;;;;;22.95;9.50;;;10.50;99.90;;;;;;4994798;28;20047;-73
2024/03/21 02:36:12;;;;;;;23.42;9.35;;;10.40;99.90;;;;;;5013767;28;20061;-73
2024/03/21 02:38:38;;;;;;;25.65;9.75;;;10.40;99.90;;;;;;4991952;28;20057;-72
2024/03/21 02:41:04;;;;;;;24.02;10.57;;;10.40;99.90;;;;;;4997351;28;20033;-73
2024/03/21 02:43:29;;;;;;;24.42;10.48;;;10.40;99.90;;;;;;4993210;28;20089;-73
2024/03/21 02:45:55;;;;;;;19.20;8.50;;;10.40;99.90;;;;;;5011032;28;20491;-73
2024/03/21 02:48:20;;;;;;;25.17;9.00;;;10.40;99.90;;;;;;5004788;28;20038;-71
2024/03/21 02:50:46;;;;;;;20.55;8.95;;;10.40;99.90;;;;;;5003499;28;20033;-73
2024/03/21 02:53:11;;;;;;;24.85;9.18;;;10.40;99.90;;;;;;5011667;28;20482;-73
2024/03/21 02:55:37;;;;;;;17.38;8.23;;;10.50;99.90;;;;;;5013056;28;20058;-75
2024/03/21 02:58:03;;;;;;;25.50;9.40;;;10.50;99.90;;;;;;5020500;28;20129;-74
2024/03/21 03:00:28;;;;;;;17.92;8.20;;;10.60;99.90;;;;;;5012193;28;20033;-71
2024/03/21 03:02:54;;;;;;;18.23;6.88;;;10.60;99.90;;;;;;4996437;28;20033;-72
2024/03/21 03:05:20;;;;;;;22.80;8.55;;;10.60;99.90;;;;;;5012922;28;20060;-72
2024/03/21 03:07:46;;;;;;;19.45;8.52;;;10.60;99.90;;;;;;5009833;28;20557;-73
2024/03/21 03:10:12;;;;;;;19.23;8.60;;;10.60;99.90;;;;;;5010739;28;20053;-72
2024/03/21 03:12:37;;;;;;;21.38;8.75;;;10.60;99.90;;;;;;4993112;28;20077;-73
2024/03/21 03:15:04;;;;;;;21.88;10.13;;;10.60;99.90;;;;;;4991930;28;20141;-73
2024/03/21 03:17:29;;;;;;;16.92;8.38;;;10.60;99.90;;;;;;5007854;28;20030;-73
2024/03/21 03:19:55;;;;;;;18.95;8.02;;;10.50;99.90;;;;;;5013642;28;20399;-73
2024/03/21 03:22:20;;;;;;;14.85;7.85;;;10.40;99.90;;;;;;5008786;28;20033;-74
2024/03/21 03:24:46;;;;;;;14.02;8.05;;;10.40;99.90;;;;;;4997174;28;20393;-73
2024/03/21 03:27:11;;;;;;;14.75;6.78;;;10.40;99.90;;;;;;4993652;28;20518;-72
2024/03/21 03:29:37;;;;;;;16.05;8.18;;;10.40;99.90;;;;;;4991042;28;20042;-74
2024/03/21 03:32:03;;;;;;;16.27;8.25;;;10.40;99.90;;;;;;5017080;28;20044;-74
2024/03/21 03:37:16;;;;;;;22.27;10.38;;;10.40;99.90;;;;;;5010607;28;20088;-72
2024/03/21 03:39:42;;;;;;;23.67;10.73;;;10.40;99.90;;;;;;5018841;28;20037;-72
2024/03/21 03:42:08;;;;;;;25.10;10.60;;;10.40;99.90;;;;;;5023184;28;20037;-75
2024/03/21 03:44:33;;;;;;;24.95;11.60;;;10.40;99.90;;;;;;5019295;28;20081;-73
2024/03/21 03:46:59;;;;;;;27.60;11.95;;;10.20;99.90;;;;;;5020001;28;20043;-71
2024/03/21 03:49:24;;;;;;;25.77;11.95;;;10.10;99.90;;;;;;5002297;28;20507;-72
2024/03/21 03:51:50;;;;;;;26.30;12.82;;;10.10;99.90;;;;;;5016131;28;20037;-73
2024/03/21 03:54:16;;;;;;;23.80;10.95;;;10.10;99.90;;;;;;5018501;28;20116;-72
2024/03/21 03:56:41;;;;;;;25.00;10.23;;;10.00;99.90;;;;;;5015389;28;20585;-72
2024/03/21 03:59:07;;;;;;;19.83;9.82;;;10.00;99.90;;;;;;5017635;28;20507;-73
2024/03/21 04:01:32;;;;;;;22.15;10.73;;;10.00;99.90;;;;;;5016794;28;20129;-73
2024/03/21 04:03:58;;;;;;;22.73;10.63;;;10.00;99.90;;;;;;5003257;28;20029;-74
2024/03/21 04:06:23;;;;;;;25.88;12.13;;;10.00;99.90;;;;;;5016294;28;20037;-73
2024/03/21 04:08:49;;;;;;;26.35;12.95;;;10.00;99.90;;;;;;5001128;28;20038;-72
2024/03/21 04:11:16;;;;;;;26.75;11.70;;;10.00;99.90;;;;;;5021155;28;20040;-74
2024/03/21 04:13:42;;;;;;;25.75;10.20;;;10.00;99.90;;;;;;5018652;28;20033;-70
2024/03/21 04:16:16;;;;;;;19.88;9.23;;;10.00;99.90;;;;;;4999046;28;20120;-72
2024/03/21 04:18:41;;;;;;;13.68;6.88;;;10.00;99.90;;;;;;4994322;28;20133;-73
2024/03/21 04:21:07;;;;;;;9.77;5.35;;;10.00;99.90;;;;;;5025038;28;20109;-72
2024/03/21 04:23:33;;;;;;;7.47;3.67;;;10.00;99.90;;;;;;5018514;28;20038;-73
2024/03/21 04:25:58;;;;;;;8.65;3.53;;;10.00;99.90;;;;;;5020404;28;20448;-71
2024/03/21 04:28:24;;;;;;;7.15;3.15;;;9.90;99.90;;;;;;5017623;28;20037;-71
2024/03/21 04:30:49;;;;;;;6.15;2.65;;;9.90;99.90;;;;;;5000813;28;20103;-73
2024/03/21 04:33:15;;;;;;;6.53;3.38;;;9.70;99.90;;;;;;5015122;28;20041;-73
2024/03/21 04:35:41;;;;;;;11.75;4.28;;;9.60;99.90;;;;;;4983264;28;20025;-72
2024/03/21 04:38:08;;;;;;;7.57;4.53;;;9.50;99.90;;;;;;4989025;28;20095;-73
2024/03/21 04:40:34;;;;;;;7.95;3.47;;;9.50;99.90;;;;;;5014874;28;20038;-71
2024/03/21 04:43:00;;;;;;;10.55;4.00;;;9.50;99.90;;;;;;5020666;28;20034;-73
2024/03/21 04:45:25;;;;;;;12.82;3.60;;;9.50;99.90;;;;;;5011860;28;20029;-73
2024/03/21 04:47:51;;;;;;;8.52;4.10;;;9.50;99.90;;;;;;5018754;28;20031;-73
2024/03/21 04:50:18;;;;;;;7.85;4.25;;;9.50;99.90;;;;;;5017866;28;20108;-71
2024/03/21 04:52:44;;;;;;;8.65;4.80;;;9.50;99.90;;;;;;5010627;28;20099;-74
2024/03/21 04:55:10;;;;;;;9.80;3.85;;;9.50;99.90;;;;;;4996469;28;20040;-72
2024/03/21 04:57:35;;;;;;;8.45;4.03;;;9.50;99.90;;;;;;4984992;28;20437;-72
2024/03/21 05:00:02;;;;;;;9.90;3.88;;;9.50;99.90;;;;;;4993335;28;20046;-73
2024/03/21 05:02:27;;;;;;;17.58;3.33;;;9.50;99.90;;;;;;5009935;28;20038;-69
2024/03/21 05:04:53;;;;;;;8.52;2.70;;;9.50;99.90;;;;;;4997649;28;20689;-74
2024/03/21 05:07:18;;;;;;;9.90;2.92;;;9.50;99.90;;;;;;4993709;28;20041;-73
2024/03/21 05:09:44;;;;;;;6.35;2.55;;;9.40;99.90;;;;;;5007205;28;20039;-72
2024/03/21 05:12:09;;;;;;;8.70;3.35;;;9.30;99.90;;;;;;5002073;28;20042;-73
2024/03/21 05:14:35;;;;;;;6.15;3.15;;;9.30;99.90;;;;;;5005648;28;20061;-73
2024/03/21 05:17:01;;;;;;;5.30;3.10;;;9.40;99.90;;;;;;4989173;28;20046;-73
2024/03/21 05:19:27;;;;;;;5.47;2.97;;;9.40;99.90;;;;;;4991926;28;20048;-72
2024/03/21 05:21:53;;;;;;;5.75;2.80;;;9.30;99.90;;;;;;5010412;28;20590;-72
2024/03/21 05:24:19;;;;;;;7.00;2.30;;;9.40;99.90;;;;;;5008978;28;20034;-73
2024/03/21 05:26:44;;;;;;;6.25;2.47;;;9.40;99.90;;;;;;4991954;28;20802;-73
2024/03/21 05:29:10;;;;;;;6.70;2.80;;;9.40;99.90;;;;;;5002464;28;20318;-71
2024/03/21 05:31:35;;;;;;;5.05;2.22;;;9.30;99.90;;;;;;5005465;28;20037;-73
2024/03/21 05:34:02;;;;;;;10.65;3.17;;;9.40;99.90;;;;;;5011936;28;20450;-71
2024/03/21 05:36:27;;;;;;;9.35;1.90;;;9.30;99.90;;;;;;5008264;28;20041;-72
2024/03/21 05:38:53;;;;;;;7.47;2.35;;;9.30;99.90;;;;;;5010886;28;20442;-72
2024/03/21 05:41:18;;;;;;;5.22;2.10;;;9.30;99.90;;;;;;5013248;28;20044;-73
2024/03/21 05:43:44;;;;;;;4.38;1.70;;;9.30;99.90;;;;;;4999492;28;20062;-75
2024/03/21 05:46:09;;;;;;;8.40;1.88;;;9.30;99.90;;;;;;5012312;28;20033;-73
2024/03/21 05:48:35;;;;;;;3.78;1.30;;;9.30;99.90;;;;;;4990731;28;20060;-72
2024/03/21 05:51:01;;;;;;;6.72;1.58;;;9.30;99.90;;;;;;5010636;28;20038;-73
2024/03/21 05:53:28;;;;;;;9.75;1.90;;;9.30;99.90;;;;;;5013111;28;20034;-74
2024/03/21 05:55:56;;;;;;;3.72;1.08;;;9.30;99.90;;;;;;5009478;28;20030;-73
2024/03/21 05:58:22;;;;;;;7.70;1.48;;;9.30;99.90;;;;;;5011546;28;20537;-76
2024/03/21 06:00:55;;;;;;;5.40;1.17;;;9.30;99.90;;;;;;5005940;28;20046;-72
2024/03/21 06:03:21;;;;;;;8.38;0.90;;;9.30;99.90;;;;;;4999493;28;20038;-72
2024/03/21 06:05:48;;;;;;;4.53;1.33;;;9.30;99.90;;;;;;5002679;28;20048;-73
2024/03/21 06:08:13;;;;;;;4.05;1.02;;;9.30;99.90;;;;;;5007593;28;20108;-72
2024/03/21 06:10:39;;;;;;;2.92;0.75;;;9.30;99.90;;;;;;5007061;28;20037;-72
2024/03/21 06:13:04;;;;;;;3.13;0.88;;;9.30;99.90;;;;;;5000548;28;20053;-73
2024/03/21 06:15:30;;;;;;;5.32;0.70;;;9.30;99.90;;;;;;5005369;28;20032;-72
2024/03/21 06:17:56;;;;;;;4.05;0.50;;;9.30;99.90;;;;;;5004038;28;20090;-73
2024/03/21 06:20:21;;;;;;;6.78;0.70;;;9.30;99.90;;;;;;5005337;28;20057;-72
2024/03/21 06:22:47;;;;;;;3.10;0.82;;;9.30;99.90;;;;;;5006947;28;20080;-73
2024/03/21 06:25:13;;;;;;;3.58;0.45;;;9.30;99.90;;;;;;5007958;28;20033;-75
2024/03/21 06:27:39;;;;;;;7.90;0.57;;;9.30;99.90;;;;;;4987983;28;20037;-73
2024/03/21 06:30:05;;;;;;;11.27;0.75;;;9.20;99.90;;;;;;4992120;28;20038;-71
2024/03/21 06:32:31;;;;;;;5.18;0.50;;;9.20;99.90;;;;;;5007316;28;20042;-71
2024/03/21 06:34:56;;;;;;;4.40;0.50;;;9.20;99.90;;;;;;4999226;28;20116;-72
2024/03/21 06:37:22;;;;;;;5.50;1.27;;;9.30;99.90;;;;;;5007017;28;20034;-72
2024/03/21 06:39:47;;;;;;;4.32;0.50;;;9.30;99.90;;;;;;4991203;28;20034;-71
2024/03/21 06:42:13;;;;;;;5.05;0.52;;;9.30;99.90;;;;;;4987947;28;20030;-69
2024/03/21 06:44:38;;;;;;;3.22;0.57;;;9.30;99.90;;;;;;4994307;28;20083;-73
2024/03/21 06:47:05;;;;;;;7.00;0.40;;;9.30;99.90;;;;;;5000061;28;20052;-73
2024/03/21 06:49:30;;;;;;;3.70;0.40;;;9.30;99.90;;;;;;5006256;28;20453;-73
2024/03/21 06:51:56;;;;;;;3.83;0.52;;;9.30;99.90;;;;;;5003288;28;20038;-73
2024/03/21 06:54:21;;;;;;;3.35;0.50;;;9.30;99.90;;;;;;5005053;28;20073;-72
2024/03/21 06:56:47;;;;;;;5.93;0.60;;;9.40;99.90;;;;;;5004364;28;20054;-72
2024/03/21 06:59:13;;;;;;;3.58;0.93;;;9.40;99.90;;;;;;5004218;28;20426;-73
2024/03/21 07:01:38;;;;;;;5.05;0.80;;;9.40;99.90;;;;;;5006772;28;20510;-73
2024/03/21 07:04:07;;;;;;;7.38;0.60;;;9.40;99.90;;;;;;5004591;28;20056;-73
2024/03/21 07:06:33;;;;;;;3.60;0.77;;;9.40;99.90;;;;;;5001705;28;20038;-72
2024/03/21 07:08:59;;;;;;;2.20;0.30;;;9.40;99.90;;;;;;4998312;28;20041;-71
2024/03/21 07:11:24;;;;;;;3.13;0.80;;;9.50;99.90;;;;;;5003740;28;20046;-72
2024/03/21 07:13:50;;;;;;;3.80;0.47;;;9.50;99.90;;;;;;5001564;28;20034;-74
2024/03/21 07:16:17;;;;;;;1.30;0.40;;;9.50;99.90;;;;;;5006442;28;20030;-74
2024/03/21 07:18:42;;;;;;;3.97;0.50;;;9.50;99.90;;;;;;5006782;28;20505;-72
2024/03/21 07:21:08;;;;;;;2.75;0.82;;;9.60;99.90;;;;;;5012296;28;20025;-73
2024/03/21 07:23:33;;;;;;;1.17;0.30;;;9.60;99.90;;;;;;5005049;28;20037;-71
2024/03/21 07:25:59;;;;;;;2.10;0.35;;;9.60;99.90;;;;;;4998098;28;20212;-71
2024/03/21 07:28:24;;;;;;;3.60;0.52;;;9.60;99.90;;;;;;5005129;28;21190;-72
2024/03/21 07:30:56;;;;;;;6.38;1.00;;;9.60;99.90;;;;;;5003614;28;20567;-74
2024/03/21 07:33:22;;;;;;;3.22;0.60;;;9.60;99.90;;;;;;5004845;28;20087;-74
2024/03/21 07:35:57;;;;;;;7.22;1.10;;;9.60;99.90;;;;;;5001579;28;20125;-74
2024/03/21 07:38:23;;;;;;;2.58;0.38;;;9.60;99.90;;;;;;5007505;28;20053;-73
2024/03/21 07:40:55;;;;;;;1.90;0.40;;;9.60;99.90;;;;;;5002389;28;20069;-74
2024/03/21 07:43:21;;;;;;;4.65;1.10;;;9.50;99.90;;;;;;5007804;28;20076;-72
2024/03/21 07:45:47;;;;;;;3.20;0.50;;;9.60;99.90;;;;;;5004053;28;24817;-73
2024/03/21 07:48:12;;;;;;;4.47;0.50;;;9.60;99.90;;;;;;4988801;28;20045;-72
2024/03/21 07:50:38;;;;;;;4.00;0.47;;;9.60;99.90;;;;;;5002931;28;20049;-71
2024/03/21 07:53:05;;;;;;;5.82;0.50;;;9.60;99.90;;;;;;5009303;28;20065;-73
2024/03/21 07:55:31;;;;;;;3.53;0.47;;;9.60;99.90;;;;;;5005055;28;20053;-70
2024/03/21 07:57:56;;;;;;;2.30;0.52;;;9.60;99.90;;;;;;5000929;28;20034;-73
2024/03/21 08:00:23;;;;;;;3.20;0.47;;;9.60;99.90;;;;;;5007674;28;20044;-73
2024/03/21 08:02:50;;;;;;;4.13;1.45;;;9.50;99.90;;;;;;5006355;28;20030;-73
2024/03/21 08:05:15;;;;;;;3.45;0.45;;;9.60;99.90;;;;;;5008976;28;20030;-72
2024/03/21 08:07:41;;;;;;;2.97;0.50;;;9.60;99.90;;;;;;5009678;28;20057;-71
2024/03/21 08:10:07;;;;;;;4.15;0.30;;;9.60;99.90;;;;;;5010518;28;20041;-73
2024/03/21 08:12:33;;;;;;;5.53;0.70;;;9.60;99.90;;;;;;5007195;28;20038;-73
2024/03/21 08:14:58;;;;;;;2.30;0.40;;;9.70;99.90;;;;;;5007070;28;20095;-74
2024/03/21 08:17:24;;;;;;;4.75;0.45;;;9.70;99.90;;;;;;5007540;28;20079;-73
2024/03/21 08:19:53;;;;;;;2.78;0.30;;;9.80;99.90;;;;;;4999847;28;20046;-72
2024/03/21 08:22:19;;;;;;;3.42;0.82;;;9.90;99.90;;;;;;5001022;28;20497;-72
2024/03/21 08:24:44;;;;;;;2.83;0.52;;;10.00;99.90;;;;;;4998181;28;20041;-71
2024/03/21 08:27:10;;;;;;;3.45;0.68;;;10.00;99.90;;;;;;5002940;28;20042;-73
2024/03/21 08:29:35;;;;;;;2.13;0.30;;;10.20;99.90;;;;;;5006078;28;20041;-72
2024/03/21 08:32:01;;;;;;;7.28;0.68;;;10.20;99.90;;;;;;5004710;28;20037;-74
2024/03/21 08:34:26;;;;;;;2.75;0.52;;;10.30;99.90;;;;;;5011327;28;20553;-72
2024/03/21 08:36:52;;;;;;;3.75;0.68;;;10.30;99.90;;;;;;4974653;28;20060;-72
2024/03/21 08:39:17;;;;;;;8.02;1.33;;;10.40;99.90;;;;;;5000829;28;20049;-74
2024/03/21 08:41:43;;;;;;;3.13;0.47;;;10.40;99.90;;;;;;4999621;28;20034;-71
2024/03/21 08:44:08;;;;;;;3.97;0.68;;;10.50;99.90;;;;;;5008745;28;20079;-72
2024/03/21 08:46:34;;;;;;;5.32;1.52;;;10.50;99.90;;;;;;5001607;28;20041;-73
2024/03/21 08:48:59;;;;;;;7.90;0.80;;;10.60;99.90;;;;;;5004596;28;20415;-72
2024/03/21 08:51:25;;;;;;;3.53;0.50;;;10.70;99.90;;;;;;5011162;28;20044;-73
2024/03/21 08:53:50;;;;;;;8.68;0.85;;;10.70;99.90;;;;;;5001478;28;20144;-72
2024/03/21 08:56:16;;;;;;;2.97;0.60;;;10.80;99.90;;;;;;5006682;28;20489;-72
2024/03/21 08:58:41;;;;;;;3.65;0.55;;;10.80;99.90;;;;;;5012925;28;20045;-73
2024/03/21 09:01:07;;;;;;;11.77;1.02;;;10.80;99.90;;;;;;5004327;28;20034;-72
2024/03/21 09:03:33;;;;;;;5.43;0.43;;;10.80;99.90;;;;;;5005118;28;20053;-74
2024/03/21 09:05:59;;;;;;;5.35;1.33;;;10.80;99.90;;;;;;5008919;28;20034;-74
2024/03/21 09:08:24;;;;;;;2.25;0.30;;;10.70;99.90;;;;;;5000414;28;20030;-73
2024/03/21 09:10:50;;;;;;;2.15;0.25;;;10.70;99.90;;;;;;5003480;28;20034;-71
2024/03/21 09:13:15;;;;;;;2.33;0.50;;;10.70;99.90;;;;;;5007335;28;20033;-72
2024/03/21 09:15:41;;;;;;;4.47;0.70;;;10.60;99.90;;;;;;5003933;28;20030;-74
2024/03/21 09:18:06;;;;;;;4.15;0.47;;;10.70;99.90;;;;;;5004185;28;20037;-73
2024/03/21 09:20:32;;;;;;;3.67;0.70;;;10.70;99.90;;;;;;5010292;28;20022;-73
2024/03/21 09:22:57;;;;;;;6.38;1.13;;;10.90;99.90;;;;;;5007020;28;20030;-73
2024/03/21 09:25:23;;;;;;;4.13;0.57;;;11.00;99.90;;;;;;5001159;28;20045;-69
2024/03/21 09:27:48;;;;;;;6.25;0.50;;;11.00;99.90;;;;;;5005236;28;20042;-71
2024/03/21 09:30:15;;;;;;;1.63;0.40;;;11.10;99.90;;;;;;5006694;28;20038;-73
2024/03/21 09:32:40;;;;;;;3.50;0.50;;;11.10;99.90;;;;;;5002173;28;20030;-73
2024/03/21 09:35:07;;;;;;;1.67;0.40;;;11.10;99.90;;;;;;5002931;28;20042;-73
2024/03/21 09:37:33;;;;;;;6.05;0.65;;;11.20;99.90;;;;;;5007477;28;20057;-74
2024/03/21 09:39:59;;;;;;;3.88;0.60;;;11.30;99.90;;;;;;5001964;28;20068;-73
2024/03/21 09:42:24;;;;;;;3.42;0.50;;;11.30;99.90;;;;;;5002527;28;20117;-74
2024/03/21 09:44:56;;;;;;;5.35;0.63;;;11.30;99.90;;;;;;5008567;28;20502;-73
2024/03/21 09:47:27;;;;;;;5.55;1.02;;;11.30;99.90;;;;;;5009800;28;20065;-72
2024/03/21 09:49:52;;;;;;;3.72;0.80;;;11.30;99.90;;;;;;4997912;28;20030;-72
2024/03/21 09:52:18;;;;;;;4.10;1.00;;;11.30;99.90;;;;;;5007378;28;20517;-72
2024/03/21 09:54:45;;;;;;;5.40;1.27;;;11.30;99.90;;;;;;5004927;28;20049;-73
2024/03/21 09:57:13;;;;;;;6.20;0.70;;;11.50;99.90;;;;;;5001736;28;20026;-70
2024/03/21 09:59:39;;;;;;;3.10;0.93;;;11.40;99.90;;;;;;5003623;28;20038;-73
2024/03/21 10:02:12;;;;;;;3.10;0.65;;;11.50;99.90;;;;;;5003831;28;20403;-71
2024/03/21 10:04:46;;;;;;;3.22;0.75;;;11.60;99.90;;;;;;5008340;28;20041;-73
2024/03/21 10:07:18;;;;;;;7.30;1.23;;;11.50;99.90;;;;;;5006195;28;20057;-73
2024/03/21 10:09:58;;;;;;;4.72;0.85;;;11.60;99.90;;;;;;5006817;28;20590;-73
2024/03/21 10:12:25;;;;;;;2.77;0.50;;;11.70;99.90;;;;;;5006622;28;20086;-72
2024/03/21 10:14:53;;;;;;;5.13;1.15;;;11.80;99.90;;;;;;5003591;28;20074;-72
2024/03/21 10:17:19;;;;;;;4.43;0.75;;;12.00;99.90;;;;;;5009533;28;20044;-71
2024/03/21 10:19:45;;;;;;;3.72;1.00;;;12.00;99.90;;;;;;5005645;28;20038;-71
2024/03/21 10:22:24;;;;;;;4.80;1.83;;;11.90;99.90;;;;;;5001751;28;20061;-73
2024/03/21 10:24:55;;;;;;;2.03;0.85;;;11.80;99.90;;;;;;5004121;28;20491;-72
2024/03/21 10:27:22;;;;;;;4.43;1.63;;;11.80;99.90;;;;;;5002071;28;20044;-76
2024/03/21 10:29:52;;;;;;;3.13;1.00;;;11.80;99.90;;;;;;4988939;28;20041;-72
2024/03/21 10:32:19;;;;;;;3.72;1.40;;;11.90;99.90;;;;;;5009311;28;20037;-73
2024/03/21 10:34:50;;;;;;;6.00;1.10;;;12.00;99.90;;;;;;5007682;28;20045;-71
2024/03/21 10:37:24;;;;;;;5.72;1.67;;;12.00;99.90;;;;;;5006381;28;20380;-74
2024/03/21 10:39:55;;;;;;;6.22;1.45;;;12.10;99.90;;;;;;5009067;28;20035;-73
2024/03/21 10:42:36;;;;;;;7.45;1.65;;;12.10;99.90;;;;;;4998300;28;20033;-72
2024/03/21 10:45:06;;;;;;;5.35;1.98;;;12.20;99.90;;;;;;5000909;28;20094;-74
2024/03/21 10:47:32;;;;;;;4.60;1.88;;;12.20;99.90;;;;;;4988921;28;20124;-72
2024/03/21 10:49:58;;;;;;;2.80;1.48;;;12.20;99.90;;;;;;5003533;28;20087;-72
2024/03/21 10:52:24;;;;;;;2.78;1.60;;;12.30;99.90;;;;;;5004097;28;20193;-73
2024/03/21 10:54:54;;;;;;;3.15;1.10;;;12.30;99.90;;;;;;5003158;28;20499;-71
2024/03/21 10:57:19;;;;;;;4.50;2.08;;;12.40;99.90;;;;;;4998486;28;20041;-73
2024/03/21 10:59:58;;;;;;;4.55;2.38;;;12.30;99.90;;;;;;5003111;28;20046;-73
2024/03/21 11:02:29;;;;;;;6.38;3.33;;;12.40;99.90;;;;;;4985572;28;20048;-72
2024/03/21 11:04:55;;;;;;;5.80;3.22;;;12.40;99.90;;;;;;5008045;28;20034;-73
2024/03/21 11:07:22;;;;;;;6.53;3.65;;;12.30;99.90;;;;;;5004731;28;20048;-73
2024/03/21 11:09:49;;;;;;;5.28;3.10;;;12.40;99.90;;;;;;4987891;28;20108;-73
2024/03/21 11:12:15;;;;;;;9.80;3.90;;;12.50;99.90;;;;;;5006959;28;20044;-74
2024/03/21 11:14:43;;;;;;;6.90;3.65;;;12.40;99.90;;;;;;5007144;28;20033;-73
2024/03/21 11:17:10;;;;;;;9.60;4.93;;;12.50;99.90;;;;;;5010001;28;20042;-70
2024/03/21 11:19:36;;;;;;;9.07;4.03;;;12.50;99.90;;;;;;5002812;28;20503;-72
2024/03/21 11:22:02;;;;;;;8.43;4.00;;;12.50;99.90;;;;;;5008638;28;20117;-73
2024/03/21 11:24:28;;;;;;;6.35;3.60;;;12.40;99.90;;;;;;5004293;28;20033;-73
2024/03/21 11:26:55;;;;;;;4.97;3.25;;;12.40;99.90;;;;;;5002722;28;20048;-72
2024/03/21 11:29:20;;;;;;;8.73;4.07;;;12.40;99.90;;;;;;5011672;28;20113;-74
2024/03/21 11:31:46;;;;;;;10.57;4.35;;;12.40;99.90;;;;;;5009560;28;20128;-72
2024/03/21 11:34:14;;;;;;;10.50;4.07;;;12.30;99.90;;;;;;5005864;28;20528;-71
2024/03/21 11:36:40;;;;;;;8.20;4.00;;;12.40;99.90;;;;;;5008111;28;20052;-73
2024/03/21 11:39:11;;;;;;;11.98;3.20;;;12.40;99.90;;;;;;5003667;28;20061;-73
2024/03/21 11:41:37;;;;;;;5.22;1.50;;;12.40;99.90;;;;;;5003941;28;20037;-73
2024/03/21 11:44:03;;;;;;;6.43;1.35;;;12.30;99.90;;;;;;4980489;28;20151;-75
2024/03/21 11:46:28;;;;;;;6.40;0.60;;;12.50;99.90;;;;;;5004400;28;20432;-74
2024/03/21 11:49:04;;;;;;;3.80;0.43;;;12.40;99.90;;;;;;5001120;28;20061;-72
2024/03/21 11:51:31;;;;;;;5.25;1.08;;;12.40;99.90;;;;;;4996968;28;20034;-71
2024/03/21 11:53:59;;;;;;;4.15;0.95;;;12.50;99.90;;;;;;4998253;28;20034;-72
2024/03/21 11:56:25;;;;;;;2.63;0.47;;;12.40;99.90;;;;;;4999648;28;20142;-72
2024/03/21 11:58:50;;;;;;;4.80;0.50;;;12.50;99.90;;;;;;5000755;28;20494;-73
2024/03/21 12:01:17;;;;;;;3.60;0.57;;;12.40;99.90;;;;;;4998646;28;20061;-75
2024/03/21 12:03:42;;;;;;;5.03;0.43;;;12.40;99.90;;;;;;5011058;28;20033;-73
2024/03/21 12:06:09;;;;;;;3.65;0.80;;;12.50;99.90;;;;;;5010934;28;20115;-74
2024/03/21 12:08:35;;;;;;;10.27;0.70;;;12.40;99.90;;;;;;5003519;28;20031;-73
2024/03/21 12:11:00;;;;;;;1.63;0.68;;;12.30;99.90;;;;;;5005170;28;20461;-71
2024/03/21 12:13:26;;;;;;;3.35;0.40;;;12.50;99.90;;;;;;5006079;28;20037;-73
2024/03/21 12:15:52;;;;;;;1.38;0.43;;;12.50;99.90;;;;;;5003981;28;20021;-74
2024/03/21 12:18:20;;;;;;;2.08;0.30;;;12.50;99.90;;;;;;5002755;28;20103;-73
2024/03/21 12:20:46;;;;;;;1.83;0.60;;;12.50;99.90;;;;;;5007028;28;20129;-73
2024/03/21 12:23:11;;;;;;;10.80;0.80;;;12.60;99.90;;;;;;5003311;28;20129;-73
2024/03/21 12:25:37;;;;;;;5.38;0.57;;;12.50;99.90;;;;;;5008286;28;20487;-74
2024/03/21 12:28:03;;;;;;;4.55;0.40;;;12.40;99.90;;;;;;5005304;28;20047;-73
2024/03/21 12:30:30;;;;;;;1.42;1.02;;;12.40;99.90;;;;;;4999614;28;20041;-72
2024/03/21 12:32:56;;;;;;;1.17;0.55;;;12.30;99.90;;;;;;5010051;28;20116;-75
2024/03/21 12:35:22;;;;;;;3.30;0.90;;;12.30;99.90;;;;;;5006323;28;20181;-73
2024/03/21 12:37:50;;;;;;;0.57;0.28;;;12.30;99.90;;;;;;5007705;28;20652;-73
2024/03/21 12:40:17;;;;;;;1.95;0.25;;;12.40;99.90;;;;;;5006215;28;20033;-74
2024/03/21 12:42:42;;;;;;;3.95;0.50;;;12.50;99.90;;;;;;5007750;28;20041;-72
2024/03/21 12:45:08;;;;;;;3.75;0.40;;;12.40;99.90;;;;;;5010037;28;20034;-72
2024/03/21 12:47:34;;;;;;;1.10;0.30;;;12.50;99.90;;;;;;4988905;28;20042;-74